Time;durP1;ratioP1;P1;durP2;ratioP2;P2;SDS_P1;SDS_P2;PMS_P1;PMS_P2;Temp;Humidity;BMP_temperature;BMP_pressure;BME280_temperature;BME280_humidity;BME280_pressure;Samples;Min_cycle;Max_cycle;Signal;HPM_P1;HPM_P2
2022/05/15 00:02:46;;;;;;;;;;;14.20;99.90;;;;;;2622476;46;19989;31
2022/05/15 00:05:21;;;;;;;;;;;14.20;99.90;;;;;;2604055;54;19943;31
2022/05/15 00:07:56;;;;;;;;;;;14.10;99.90;;;;;;2603822;54;19961;31
2022/05/15 00:10:33;;;;;;;;;;;14.10;99.90;;;;;;2604128;54;19934;31
2022/05/15 00:13:11;;;;;;;;;;;14.10;99.90;;;;;;2720905;39;20397;31
2022/05/15 00:15:46;;;;;;;;;;;14.10;99.90;;;;;;2622361;46;19957;31
2022/05/15 00:18:22;;;;;;;;;;;14.10;99.90;;;;;;2603606;54;19942;31
2022/05/15 00:20:57;;;;;;;;;;;14.10;99.90;;;;;;2603959;54;19941;31
2022/05/15 00:23:32;;;;;;;;;;;14.10;99.90;;;;;;2622238;46;20788;31
2022/05/15 00:26:08;;;;;;;;;;;14.10;99.90;;;;;;2604238;54;19957;31
2022/05/15 00:28:46;;;;;;;;;;;14.10;99.90;;;;;;2603254;54;19942;31
2022/05/15 00:31:21;;;;;;;;;;;14.10;99.90;;;;;;2614162;46;19947;31
2022/05/15 00:33:58;;;;;;;;;;;14.10;99.90;;;;;;2603953;54;20731;31
2022/05/15 00:36:33;;;;;;;;;;;14.00;99.90;;;;;;2603150;54;19934;31
2022/05/15 00:39:08;;;;;;;;;;;14.00;99.90;;;;;;2603574;54;19998;31
2022/05/15 00:41:44;;;;;;;;;;;14.00;99.90;;;;;;2603154;54;19942;31
2022/05/15 00:44:22;;;;;;;;;;;14.00;99.90;;;;;;2603912;54;20001;31
2022/05/15 00:46:56;;;;;;;;;;;13.90;99.90;;;;;;2603816;54;19935;31
2022/05/15 00:49:32;;;;;;;;;;;13.90;99.90;;;;;;2604006;54;19935;31
2022/05/15 00:52:06;;;;;;;;;;;13.90;99.90;;;;;;2603976;54;19935;31
2022/05/15 00:54:42;;;;;;;;;;;13.90;99.90;;;;;;2773129;31;21280;31
2022/05/15 00:57:18;;;;;;;;;;;13.90;99.90;;;;;;2622208;46;19941;31
2022/05/15 00:59:58;;;;;;;;;;;13.90;99.90;;;;;;2622379;46;20654;31
2022/05/15 01:02:34;;;;;;;;;;;13.90;99.90;;;;;;2603957;54;19939;31
2022/05/15 01:05:10;;;;;;;;;;;13.90;99.90;;;;;;2604002;54;20760;31
2022/05/15 01:07:45;;;;;;;;;;;13.90;99.90;;;;;;2607492;46;20791;31
2022/05/15 01:10:19;;;;;;;;;;;13.90;99.90;;;;;;2622063;46;19938;31
2022/05/15 01:12:52;;;;;;;;;;;13.90;99.90;;;;;;2702536;39;21009;31
2022/05/15 01:15:31;;;;;;;;;;;13.90;99.90;;;;;;2603832;54;20775;31
2022/05/15 01:18:08;;;;;;;;;;;13.90;99.90;;;;;;2622081;46;19934;31
2022/05/15 01:20:43;;;;;;;;;;;13.80;99.90;;;;;;2622384;46;20005;31
2022/05/15 01:23:24;;;;;;;;;;;13.80;99.90;;;;;;2622266;46;19934;31
2022/05/15 01:26:01;;;;;;;;;;;13.80;99.90;;;;;;2702302;39;21002;31
2022/05/15 01:28:39;;;;;;;;;;;13.80;99.90;;;;;;2603782;54;19935;31
2022/05/15 01:31:17;;;;;;;;;;;13.80;99.90;;;;;;2622102;46;19938;31
2022/05/15 01:33:52;;;;;;;;;;;13.80;99.90;;;;;;2603703;54;20013;31
2022/05/15 01:36:28;;;;;;;;;;;13.80;99.90;;;;;;2603949;54;20750;31
2022/05/15 01:39:07;;;;;;;;;;;13.80;99.90;;;;;;2622017;46;19934;31
2022/05/15 01:41:42;;;;;;;;;;;13.80;99.90;;;;;;2602963;54;20877;31
2022/05/15 01:44:18;;;;;;;;;;;13.80;99.90;;;;;;2617343;46;19949;31
2022/05/15 01:46:53;;;;;;;;;;;13.70;99.90;;;;;;2603962;54;19942;31
2022/05/15 01:49:29;;;;;;;;;;;13.70;99.90;;;;;;2603543;54;20767;31
2022/05/15 01:52:04;;;;;;;;;;;13.70;99.90;;;;;;2622407;46;19942;31
2022/05/15 01:54:42;;;;;;;;;;;13.70;99.90;;;;;;2617927;46;19942;31
2022/05/15 01:57:17;;;;;;;;;;;13.60;99.90;;;;;;2603682;54;19941;31
2022/05/15 01:59:52;;;;;;;;;;;13.60;99.90;;;;;;2603660;54;20724;31
2022/05/15 02:02:27;;;;;;;;;;;13.40;99.90;;;;;;2603556;54;19941;31
2022/05/15 02:05:01;;;;;;;;;;;13.40;99.90;;;;;;2622130;46;19940;31
2022/05/15 02:07:36;;;;;;;;;;;13.30;99.90;;;;;;2622069;46;19941;31
2022/05/15 02:10:15;;;;;;;;;;;13.30;99.90;;;;;;2622168;46;19942;31
2022/05/15 02:12:51;;;;;;;;;;;13.30;99.90;;;;;;2603537;54;20785;31
2022/05/15 02:15:25;;;;;;;;;;;13.30;99.90;;;;;;2602917;54;19942;31
2022/05/15 02:18:00;;;;;;;;;;;13.20;99.90;;;;;;2621076;46;19935;31
2022/05/15 02:20:36;;;;;;;;;;;13.20;99.90;;;;;;2603594;54;19935;31
2022/05/15 02:23:11;;;;;;;;;;;13.20;99.90;;;;;;2603659;54;19977;31
2022/05/15 02:25:51;;;;;;;;;;;13.20;99.90;;;;;;2622106;46;19942;31
2022/05/15 02:28:27;;;;;;;;;;;13.20;99.90;;;;;;2603599;54;20021;31
2022/05/15 02:31:02;;;;;;;;;;;13.10;99.90;;;;;;2616203;46;19948;31
2022/05/15 02:33:39;;;;;;;;;;;13.10;99.90;;;;;;2603465;54;19941;31
2022/05/15 02:36:14;;;;;;;;;;;13.00;99.90;;;;;;2603626;54;20749;31
2022/05/15 02:38:49;;;;;;;;;;;12.90;99.90;;;;;;2603284;54;19942;31
2022/05/15 02:41:27;;;;;;;;;;;12.90;99.90;;;;;;2603895;54;20728;31
2022/05/15 02:44:02;;;;;;;;;;;12.80;99.90;;;;;;2604311;54;19943;31
2022/05/15 02:46:39;;;;;;;;;;;12.80;99.90;;;;;;2604485;54;20025;31
2022/05/15 02:52:01;;;;;;;;;;;12.70;99.90;;;;;;2604445;54;19934;31
2022/05/15 02:54:36;;;;;;;;;;;12.70;99.90;;;;;;2622951;46;19957;31
2022/05/15 02:57:14;;;;;;;;;;;12.60;99.90;;;;;;2604426;54;19962;31
2022/05/15 02:59:49;;;;;;;;;;;12.60;99.90;;;;;;2603324;54;20887;31
2022/05/15 03:02:24;;;;;;;;;;;12.60;99.90;;;;;;2604431;54;19934;31
2022/05/15 03:04:59;;;;;;;;;;;12.60;99.90;;;;;;2603525;54;19968;31
2022/05/15 03:07:34;;;;;;;;;;;12.60;99.90;;;;;;2721266;39;20390;31
2022/05/15 03:10:10;;;;;;;;;;;12.50;99.90;;;;;;2603574;54;19950;31
2022/05/15 03:12:48;;;;;;;;;;;12.50;99.90;;;;;;2623017;46;20065;31
2022/05/15 03:15:23;;;;;;;;;;;12.50;99.90;;;;;;2622586;46;19941;31
2022/05/15 03:17:59;;;;;;;;;;;12.50;99.90;;;;;;2622470;46;19978;31
2022/05/15 03:20:34;;;;;;;;;;;12.50;99.90;;;;;;2604033;54;20749;31
2022/05/15 03:23:09;;;;;;;;;;;12.50;99.90;;;;;;2603986;54;19957;31
2022/05/15 03:25:44;;;;;;;;;;;12.50;99.90;;;;;;2622740;46;20492;31
2022/05/15 03:28:22;;;;;;;;;;;12.50;99.90;;;;;;2622799;46;19941;31
2022/05/15 03:30:57;;;;;;;;;;;12.50;99.90;;;;;;2622749;46;19935;31
2022/05/15 03:33:32;;;;;;;;;;;12.40;99.90;;;;;;2622600;46;19935;31
2022/05/15 03:36:10;;;;;;;;;;;12.50;99.90;;;;;;2622809;46;19938;31
2022/05/15 03:38:46;;;;;;;;;;;12.50;99.90;;;;;;2603165;54;19942;31
2022/05/15 03:41:21;;;;;;;;;;;12.50;99.90;;;;;;2721291;39;21269;31
2022/05/15 03:44:00;;;;;;;;;;;12.60;99.90;;;;;;2603221;54;20765;31
2022/05/15 03:46:39;;;;;;;;;;;12.70;99.90;;;;;;2603942;54;20832;31
2022/05/15 03:49:13;;;;;;;;;;;12.70;99.90;;;;;;2604158;54;20824;31
2022/05/15 03:51:49;;;;;;;;;;;12.80;99.90;;;;;;2604217;54;20473;31
2022/05/15 03:54:26;;;;;;;;;;;13.00;99.90;;;;;;2604241;54;19941;31
2022/05/15 03:57:00;;;;;;;;;;;13.10;99.90;;;;;;2603368;54;19941;31
2022/05/15 03:59:35;;;;;;;;;;;13.20;99.90;;;;;;2621985;46;19934;31
2022/05/15 04:02:11;;;;;;;;;;;13.30;99.90;;;;;;2603949;54;19935;31
2022/05/15 04:04:47;;;;;;;;;;;13.30;99.90;;;;;;2604207;54;19935;31
2022/05/15 04:07:22;;;;;;;;;;;13.40;99.90;;;;;;2604071;54;19981;31
2022/05/15 04:09:56;;;;;;;;;;;13.60;99.90;;;;;;2603887;54;20753;31
2022/05/15 04:12:34;;;;;;;;;;;13.80;99.90;;;;;;2603975;54;20802;31
2022/05/15 04:15:10;;;;;;;;;;;13.90;99.90;;;;;;2604263;54;20025;31
2022/05/15 04:17:49;;;;;;;;;;;14.10;99.90;;;;;;2604028;54;19931;31
2022/05/15 04:20:24;;;;;;;;;;;14.30;99.90;;;;;;2622376;46;19935;31
2022/05/15 04:22:59;;;;;;;;;;;14.40;99.90;;;;;;2603232;54;19965;31
2022/05/15 04:25:34;;;;;;;;;;;14.60;99.90;;;;;;2603541;54;20803;31
2022/05/15 04:28:08;;;;;;;;;;;14.80;99.90;;;;;;2603902;54;19935;31
2022/05/15 04:30:44;;;;;;;;;;;14.90;99.90;;;;;;2603906;54;20848;31
2022/05/15 04:33:23;;;;;;;;;;;15.00;99.90;;;;;;2622504;46;20796;31
2022/05/15 04:35:57;;;;;;;;;;;15.20;99.90;;;;;;2622657;46;19947;31
2022/05/15 04:38:31;;;;;;;;;;;15.40;99.90;;;;;;2622078;46;19938;31
2022/05/15 04:41:06;;;;;;;;;;;15.50;99.90;;;;;;2603769;54;20766;31
2022/05/15 04:43:41;;;;;;;;;;;15.70;99.90;;;;;;2622544;46;19942;31
2022/05/15 04:46:16;;;;;;;;;;;15.90;99.90;;;;;;2604036;54;19942;31
2022/05/15 04:48:54;;;;;;;;;;;16.00;99.90;;;;;;2622405;46;19943;31
2022/05/15 04:51:29;;;;;;;;;;;16.20;99.90;;;;;;2604268;54;19935;31
2022/05/15 04:54:06;;;;;;;;;;;16.40;99.90;;;;;;2622375;46;19934;31
2022/05/15 04:56:41;;;;;;;;;;;16.60;99.90;;;;;;2603825;54;20762;31
2022/05/15 04:59:17;;;;;;;;;;;16.90;99.90;;;;;;2603979;54;19993;31
2022/05/15 05:01:52;;;;;;;;;;;17.00;99.90;;;;;;2622575;46;20870;31
2022/05/15 05:04:30;;;;;;;;;;;17.20;99.90;;;;;;2603916;54;19935;31
2022/05/15 05:07:06;;;;;;;;;;;17.40;99.90;;;;;;2603923;54;20762;31
2022/05/15 05:09:42;;;;;;;;;;;17.60;99.90;;;;;;2702535;39;20408;31
2022/05/15 05:12:15;;;;;;;;;;;17.70;99.90;;;;;;2622707;46;20703;31
2022/05/15 05:14:50;;;;;;;;;;;18.10;99.90;;;;;;2622530;46;19935;31
2022/05/15 05:17:27;;;;;;;;;;;18.20;99.90;;;;;;2603817;54;19935;31
2022/05/15 05:20:05;;;;;;;;;;;18.40;99.90;;;;;;2604011;54;19938;31
2022/05/15 05:22:37;;;;;;;;;;;18.50;99.90;;;;;;2702537;39;20950;31
2022/05/15 05:25:14;;;;;;;;;;;18.60;99.90;;;;;;2603595;54;19935;31
2022/05/15 05:27:52;;;;;;;;;;;18.80;99.90;;;;;;2603730;54;20845;31
2022/05/15 05:30:28;;;;;;;;;;;18.90;99.90;;;;;;2603681;54;19942;31
2022/05/15 05:33:03;;;;;;;;;;;19.00;99.90;;;;;;2622663;46;20762;31
2022/05/15 05:35:42;;;;;;;;;;;19.10;99.90;;;;;;2603734;54;19934;31
2022/05/15 05:38:17;;;;;;;;;;;19.00;99.90;;;;;;2603999;54;20045;31
2022/05/15 05:40:56;;;;;;;;;;;18.90;99.90;;;;;;2603548;54;20824;31
2022/05/15 05:43:30;;;;;;;;;;;18.80;99.90;;;;;;2603665;54;20794;31
2022/05/15 05:46:06;;;;;;;;;;;18.80;99.90;;;;;;2603627;54;19941;31
2022/05/15 05:48:45;;;;;;;;;;;19.00;99.90;;;;;;2622198;46;20024;31
2022/05/15 05:51:25;;;;;;;;;;;19.30;99.90;;;;;;2603706;54;19942;31
2022/05/15 05:53:59;;;;;;;;;;;19.60;99.90;;;;;;2622129;46;19953;31
2022/05/15 05:56:34;;;;;;;;;;;19.80;99.90;;;;;;2603690;54;20032;31
2022/05/15 05:59:11;;;;;;;;;;;19.90;99.70;;;;;;2603722;54;20741;31
2022/05/15 06:01:47;;;;;;;;;;;20.10;99.70;;;;;;2602835;54;20722;31
2022/05/15 06:07:15;;;;;;;;;;;20.50;98.80;;;;;;2603555;54;19934;31
2022/05/15 06:09:50;;;;;;;;;;;20.70;97.90;;;;;;2622119;46;19939;31
2022/05/15 06:12:30;;;;;;;;;;;20.90;98.30;;;;;;2603514;54;20749;31
2022/05/15 06:15:06;;;;;;;;;;;21.10;97.30;;;;;;2618748;46;20009;31
2022/05/15 06:17:40;;;;;;;;;;;21.20;96.80;;;;;;2603515;54;19986;31
2022/05/15 06:20:17;;;;;;;;;;;21.40;96.60;;;;;;2720797;39;21072;31
2022/05/15 06:22:56;;;;;;;;;;;21.50;96.20;;;;;;2603633;54;20793;31
2022/05/15 06:25:31;;;;;;;;;;;21.70;95.80;;;;;;2602773;54;19960;31
2022/05/15 06:28:06;;;;;;;;;;;21.90;95.50;;;;;;2603593;54;20798;31
2022/05/15 06:30:41;;;;;;;;;;;22.10;95.50;;;;;;2603759;54;19935;31
2022/05/15 06:33:20;;;;;;;;;;;22.20;94.60;;;;;;2603540;54;19942;31
2022/05/15 06:35:54;;;;;;;;;;;22.20;94.10;;;;;;2603434;54;19942;31
2022/05/15 06:38:35;;;;;;;;;;;22.30;94.50;;;;;;2603438;54;20776;31
2022/05/15 06:41:10;;;;;;;;;;;22.30;93.20;;;;;;2701794;39;21332;31
2022/05/15 06:43:52;;;;;;;;;;;22.40;93.50;;;;;;2603781;54;19950;31
2022/05/15 06:46:27;;;;;;;;;;;22.50;93.10;;;;;;2603810;54;19993;31
2022/05/15 06:49:05;;;;;;;;;;;22.60;92.40;;;;;;2603609;54;20046;31
2022/05/15 06:51:41;;;;;;;;;;;22.70;92.50;;;;;;2611308;47;19946;31
2022/05/15 06:54:19;;;;;;;;;;;22.90;92.30;;;;;;2603199;54;20679;31
2022/05/15 06:59:47;;;;;;;;;;;23.10;92.60;;;;;;2622135;47;20771;31
2022/05/15 07:02:22;;;;;;;;;;;23.20;91.60;;;;;;2603231;54;21283;31
2022/05/15 07:05:02;;;;;;;;;;;23.20;91.70;;;;;;2622036;47;19934;31
2022/05/15 07:07:38;;;;;;;;;;;23.30;91.80;;;;;;2603125;54;20852;31
2022/05/15 07:10:17;;;;;;;;;;;23.30;91.30;;;;;;2603560;54;19941;31
2022/05/15 07:13:02;;;;;;;;;;;23.40;91.30;;;;;;2603037;54;20021;31
2022/05/15 07:15:37;;;;;;;;;;;23.50;91.30;;;;;;2603530;54;19935;31
2022/05/15 07:18:11;;;;;;;;;;;23.60;90.70;;;;;;2603588;54;19942;31
2022/05/15 07:20:46;;;;;;;;;;;23.60;91.20;;;;;;2603561;54;19935;31
2022/05/15 07:23:21;;;;;;;;;;;23.70;90.80;;;;;;2603291;54;19934;31
2022/05/15 07:25:56;;;;;;;;;;;23.90;90.20;;;;;;2603563;54;19943;31
2022/05/15 07:28:33;;;;;;;;;;;23.80;89.80;;;;;;2604186;54;19935;31
2022/05/15 07:31:08;;;;;;;;;;;24.10;89.70;;;;;;2604205;54;19941;31
2022/05/15 07:33:42;;;;;;;;;;;24.00;89.80;;;;;;2622751;46;19934;31
2022/05/15 07:36:17;;;;;;;;;;;24.20;90.30;;;;;;2622616;46;19931;31
2022/05/15 07:38:52;;;;;;;;;;;24.10;89.40;;;;;;2603908;54;20832;31
2022/05/15 07:41:29;;;;;;;;;;;24.20;89.00;;;;;;2604468;54;19935;31
2022/05/15 07:44:08;;;;;;;;;;;24.20;89.20;;;;;;2604070;54;19941;31
2022/05/15 07:46:43;;;;;;;;;;;24.30;87.30;;;;;;2603460;54;19943;31
2022/05/15 07:49:18;;;;;;;;;;;24.20;88.90;;;;;;2604202;54;19954;31
2022/05/15 07:51:55;;;;;;;;;;;24.40;88.60;;;;;;2603193;54;19938;31
2022/05/15 07:54:33;;;;;;;;;;;24.60;89.70;;;;;;2603216;54;19934;31
2022/05/15 07:57:08;;;;;;;;;;;24.70;88.20;;;;;;2622771;46;20780;31
2022/05/15 07:59:45;;;;;;;;;;;24.80;87.30;;;;;;2603694;54;19942;31
2022/05/15 08:02:19;;;;;;;;;;;25.00;86.80;;;;;;2604008;54;19935;31
2022/05/15 08:10:25;;;;;;;;;;;24.80;87.30;;;;;;2603993;54;19935;31
2022/05/15 08:12:59;;;;;;;;;;;24.90;87.20;;;;;;2604192;54;19941;31
2022/05/15 08:15:36;;;;;;;;;;;25.00;86.20;;;;;;2622338;46;19935;31
2022/05/15 08:23:44;;;;;;;;;;;25.10;86.80;;;;;;2622224;46;19942;31
2022/05/15 08:26:19;;;;;;;;;;;25.30;85.80;;;;;;2604125;54;19941;31
2022/05/15 08:28:51;;;;;;;;;;;25.30;86.20;;;;;;2603892;54;19961;31
2022/05/15 08:31:28;;;;;;;;;;;25.10;85.10;;;;;;2604075;54;20770;31
2022/05/15 08:34:02;;;;;;;;;;;25.10;86.70;;;;;;2622192;46;20807;31
2022/05/15 08:36:39;;;;;;;;;;;25.00;84.90;;;;;;2622559;46;19986;31
2022/05/15 08:39:11;;;;;;;;;;;24.90;85.60;;;;;;2622145;46;19990;31
2022/05/15 08:41:47;;;;;;;;;;;25.00;85.20;;;;;;2603899;54;19993;31
2022/05/15 08:44:22;;;;;;;;;;;24.90;84.40;;;;;;2603811;54;19938;31
2022/05/15 08:47:11;;;;;;;;;;;24.60;85.10;;;;;;2604084;54;19941;31
2022/05/15 08:49:48;;;;;;;;;;;24.20;86.60;;;;;;2603787;54;19941;31
2022/05/15 08:52:24;;;;;;;;;;;23.90;85.50;;;;;;2622182;46;20013;31
2022/05/15 08:54:59;;;;;;;;;;;23.80;87.40;;;;;;2622605;46;20846;31
2022/05/15 08:57:36;;;;;;;;;;;24.00;88.10;;;;;;2604035;54;20010;31
2022/05/15 09:00:13;;;;;;;;;;;24.00;86.20;;;;;;2621827;46;19958;31
2022/05/15 09:02:47;;;;;;;;;;;24.40;86.00;;;;;;2604059;54;19942;31
2022/05/15 09:05:27;;;;;;;;;;;24.50;84.40;;;;;;2604058;54;19942;31
2022/05/15 09:08:01;;;;;;;;;;;24.60;84.50;;;;;;2603953;54;20656;31
2022/05/15 09:10:36;;;;;;;;;;;24.40;83.20;;;;;;2603623;54;20673;31
2022/05/15 09:13:12;;;;;;;;;;;24.40;82.00;;;;;;2774061;31;22307;31
2022/05/15 09:15:48;;;;;;;;;;;24.50;85.40;;;;;;2622584;46;19941;31
2022/05/15 09:18:23;;;;;;;;;;;24.80;81.60;;;;;;2603991;54;19993;31
2022/05/15 09:21:02;;;;;;;;;;;24.90;83.80;;;;;;2622465;46;19935;31
2022/05/15 09:23:37;;;;;;;;;;;24.70;83.50;;;;;;2622307;46;19997;31
2022/05/15 09:26:19;;;;;;;;;;;24.60;83.20;;;;;;2622446;46;19935;31
2022/05/15 09:28:55;;;;;;;;;;;24.80;81.90;;;;;;2603547;54;19934;31
2022/05/15 09:31:30;;;;;;;;;;;24.90;81.60;;;;;;2603707;54;20765;31
2022/05/15 09:34:03;;;;;;;;;;;25.10;82.40;;;;;;2622229;46;19934;31
2022/05/15 09:36:45;;;;;;;;;;;25.20;81.30;;;;;;2603692;54;19950;31
2022/05/15 09:39:17;;;;;;;;;;;25.40;81.20;;;;;;2622406;46;19942;31
2022/05/15 09:44:46;;;;;;;;;;;25.70;81.60;;;;;;2603678;54;19934;31
2022/05/15 09:47:25;;;;;;;;;;;25.80;81.20;;;;;;2603910;54;20799;31
2022/05/15 09:49:58;;;;;;;;;;;25.80;81.30;;;;;;2622313;46;19935;31
2022/05/15 09:52:36;;;;;;;;;;;25.80;80.10;;;;;;2622188;46;19934;31
2022/05/15 09:55:10;;;;;;;;;;;25.90;80.90;;;;;;2604024;54;19941;31
2022/05/15 09:57:54;;;;;;;;;;;26.00;81.00;;;;;;2603874;54;20505;31
2022/05/15 10:00:27;;;;;;;;;;;26.20;79.90;;;;;;2603691;54;20749;31
2022/05/15 10:03:03;;;;;;;;;;;26.10;78.10;;;;;;2603703;54;19981;31
2022/05/15 10:05:38;;;;;;;;;;;25.80;77.50;;;;;;2603523;54;19947;31
2022/05/15 10:08:30;;;;;;;;;;;25.70;78.20;;;;;;2603639;54;20791;31
2022/05/15 10:11:05;;;;;;;;;;;25.70;76.90;;;;;;2622212;46;19941;31
2022/05/15 10:13:40;;;;;;;;;;;25.70;76.20;;;;;;2622081;46;19989;31
2022/05/15 10:16:15;;;;;;;;;;;25.80;78.20;;;;;;2603570;54;19986;31
2022/05/15 10:18:50;;;;;;;;;;;25.80;79.70;;;;;;2603167;54;19947;31
2022/05/15 10:21:25;;;;;;;;;;;25.90;78.40;;;;;;2603444;54;19942;31
2022/05/15 10:24:03;;;;;;;;;;;26.00;76.60;;;;;;2603375;54;20733;31
2022/05/15 10:26:37;;;;;;;;;;;26.00;76.90;;;;;;2603810;54;19941;31
2022/05/15 10:29:12;;;;;;;;;;;26.00;77.10;;;;;;2603410;54;19950;31
2022/05/15 10:31:45;;;;;;;;;;;26.00;76.90;;;;;;2721162;39;22124;31
2022/05/15 10:34:23;;;;;;;;;;;25.80;74.90;;;;;;2603445;54;20764;31
2022/05/15 10:37:04;;;;;;;;;;;25.70;75.40;;;;;;2603497;54;20808;31
2022/05/15 10:39:43;;;;;;;;;;;25.60;73.80;;;;;;2603483;54;19935;31
2022/05/15 10:42:21;;;;;;;;;;;25.70;75.30;;;;;;2621838;47;19986;31
2022/05/15 10:44:59;;;;;;;;;;;25.70;75.10;;;;;;2603541;54;19934;31
2022/05/15 10:47:33;;;;;;;;;;;25.70;75.30;;;;;;2622291;47;20025;31
2022/05/15 10:50:21;;;;;;;;;;;25.50;73.00;;;;;;2621942;47;19938;31
2022/05/15 10:57:21;;;;;;;;;;;25.50;72.00;;;;;;2621905;47;19997;31
2022/05/15 10:58:57;;;;;;;;;;;25.50;74.90;;;;;;2603702;54;20754;31
2022/05/15 11:01:32;;;;;;;;;;;25.60;72.60;;;;;;2603386;54;20792;31
2022/05/15 11:04:13;;;;;;;;;;;25.50;71.90;;;;;;2622436;46;19934;31
2022/05/15 11:06:49;;;;;;;;;;;25.50;73.80;;;;;;2604333;54;19990;31
2022/05/15 11:09:23;;;;;;;;;;;25.50;72.90;;;;;;2622575;46;19934;31
2022/05/15 11:12:15;;;;;;;;;;;25.50;73.80;;;;;;2604365;54;19941;31
2022/05/15 11:14:58;;;;;;;;;;;25.50;73.40;;;;;;2622404;46;20666;31
2022/05/15 11:17:33;;;;;;;;;;;25.50;71.70;;;;;;2604335;54;20741;31
2022/05/15 11:20:08;;;;;;;;;;;25.40;70.80;;;;;;2604365;54;20020;31
2022/05/15 11:22:44;;;;;;;;;;;25.30;71.10;;;;;;2604391;54;19950;31
2022/05/15 11:25:20;;;;;;;;;;;25.20;72.60;;;;;;2604079;54;19943;31
2022/05/15 11:27:57;;;;;;;;;;;25.10;72.80;;;;;;2604073;54;19990;31
2022/05/15 11:30:32;;;;;;;;;;;25.20;72.70;;;;;;2604106;54;19934;31
2022/05/15 11:33:08;;;;;;;;;;;25.10;72.90;;;;;;2604182;54;19934;31
2022/05/15 11:35:43;;;;;;;;;;;25.10;74.20;;;;;;2604058;54;20765;31
2022/05/15 11:38:22;;;;;;;;;;;25.10;74.00;;;;;;2721492;39;20935;31
2022/05/15 11:40:57;;;;;;;;;;;25.00;72.40;;;;;;2702645;39;20467;31
2022/05/15 11:43:39;;;;;;;;;;;25.00;72.50;;;;;;2622542;46;20008;31
2022/05/15 11:46:14;;;;;;;;;;;24.90;71.90;;;;;;2603929;54;19935;31
2022/05/15 11:48:55;;;;;;;;;;;24.90;73.00;;;;;;2622721;46;19961;31
2022/05/15 11:51:31;;;;;;;;;;;24.90;72.90;;;;;;2622559;46;19934;31
2022/05/15 11:54:05;;;;;;;;;;;24.90;71.00;;;;;;2604193;54;19935;31
2022/05/15 11:56:42;;;;;;;;;;;24.90;72.60;;;;;;2604248;54;19935;31
2022/05/15 11:59:33;;;;;;;;;;;25.00;70.90;;;;;;2604226;54;19946;31
2022/05/15 12:02:29;;;;;;;;;;;25.00;69.10;;;;;;2604155;54;19958;31
2022/05/15 12:05:09;;;;;;;;;;;24.90;68.90;;;;;;2603732;54;20405;31
2022/05/15 12:07:53;;;;;;;;;;;24.70;70.60;;;;;;2604184;54;19938;31
2022/05/15 12:10:45;;;;;;;;;;;24.70;70.90;;;;;;2622832;46;19934;31
2022/05/15 12:13:32;;;;;;;;;;;24.80;70.50;;;;;;2603255;54;20405;31
2022/05/15 12:16:16;;;;;;;;;;;24.80;70.90;;;;;;2604105;54;19941;31
2022/05/15 12:18:55;;;;;;;;;;;24.80;71.50;;;;;;2622851;46;20777;31
2022/05/15 12:21:55;;;;;;;;;;;24.80;72.30;;;;;;2622405;46;19977;31
2022/05/15 12:24:33;;;;;;;;;;;24.80;70.70;;;;;;2604290;46;19941;31
2022/05/15 12:27:12;;;;;;;;;;;24.70;69.70;;;;;;2603879;54;19939;31
2022/05/15 12:29:50;;;;;;;;;;;24.60;70.60;;;;;;2604212;54;20045;31
2022/05/15 12:32:23;;;;;;;;;;;24.50;70.50;;;;;;2604070;54;20764;31
2022/05/15 12:35:00;;;;;;;;;;;24.40;70.60;;;;;;2603875;54;19941;31
2022/05/15 12:37:35;;;;;;;;;;;24.30;70.40;;;;;;2622606;46;19935;31
2022/05/15 12:40:10;;;;;;;;;;;24.30;70.40;;;;;;2604154;54;19935;31
2022/05/15 12:42:43;;;;;;;;;;;24.20;72.80;;;;;;2603879;54;19934;31
2022/05/15 12:45:21;;;;;;;;;;;24.20;72.40;;;;;;2622396;46;19939;31
2022/05/15 12:48:09;;;;;;;;;;;24.30;72.10;;;;;;2603312;54;20779;31
2022/05/15 12:50:52;;;;;;;;;;;24.20;73.30;;;;;;2622467;46;19935;31
2022/05/15 12:53:27;;;;;;;;;;;24.20;73.40;;;;;;2622616;46;19935;31
2022/05/15 12:56:09;;;;;;;;;;;24.30;71.70;;;;;;2603859;54;20497;31
2022/05/15 12:58:45;;;;;;;;;;;24.20;72.10;;;;;;2603733;54;20807;31
2022/05/15 13:01:19;;;;;;;;;;;24.20;70.80;;;;;;2603927;54;19934;31
2022/05/15 13:03:56;;;;;;;;;;;24.20;72.00;;;;;;2603694;54;19993;31
2022/05/15 13:06:34;;;;;;;;;;;24.10;73.00;;;;;;2603484;54;19946;31
2022/05/15 13:09:09;;;;;;;;;;;24.10;72.00;;;;;;2604099;54;19993;31
2022/05/15 13:11:44;;;;;;;;;;;24.10;71.40;;;;;;2622478;46;19935;31
2022/05/15 13:14:20;;;;;;;;;;;24.00;70.40;;;;;;2603877;54;20798;31
2022/05/15 13:16:54;;;;;;;;;;;24.10;72.60;;;;;;2604150;54;19934;31
2022/05/15 13:19:30;;;;;;;;;;;24.10;72.00;;;;;;2603855;54;19957;31
2022/05/15 13:22:08;;;;;;;;;;;24.10;73.50;;;;;;2603916;54;19961;31
2022/05/15 13:24:43;;;;;;;;;;;24.10;72.50;;;;;;2622217;46;19990;31
2022/05/15 13:27:17;;;;;;;;;;;24.10;71.10;;;;;;2603643;54;20758;31
2022/05/15 13:29:50;;;;;;;;;;;24.00;71.30;;;;;;2603705;54;19942;31
2022/05/15 13:32:24;;;;;;;;;;;24.00;72.70;;;;;;2603500;54;19941;31
2022/05/15 13:34:58;;;;;;;;;;;24.00;71.80;;;;;;2622151;46;19935;31
2022/05/15 13:37:36;;;;;;;;;;;24.00;71.40;;;;;;2622446;46;20761;31
2022/05/15 13:43:28;;;;;;;;;;;24.10;71.90;;;;;;2603669;54;19934;31
2022/05/15 13:46:00;;;;;;;;;;;24.10;72.10;;;;;;2702584;39;22165;31
2022/05/15 13:48:49;;;;;;;;;;;24.10;72.30;;;;;;2603806;54;20799;31
2022/05/15 13:51:34;;;;;;;;;;;24.00;72.20;;;;;;2604075;54;20009;31
2022/05/15 13:54:11;;;;;;;;;;;24.00;71.70;;;;;;2702117;39;21440;31
2022/05/15 13:56:50;;;;;;;;;;;24.00;71.30;;;;;;2622319;46;19946;31
2022/05/15 13:59:34;;;;;;;;;;;23.90;71.60;;;;;;2603782;54;19969;31
2022/05/15 14:02:16;;;;;;;;;;;23.90;71.20;;;;;;2603760;54;19942;31
2022/05/15 14:04:54;;;;;;;;;;;23.90;71.00;;;;;;2622082;46;20803;31
2022/05/15 14:07:29;;;;;;;;;;;23.80;70.00;;;;;;2603658;54;19943;31
2022/05/15 14:10:17;;;;;;;;;;;23.70;72.10;;;;;;2603544;54;20761;31
2022/05/15 14:12:51;;;;;;;;;;;23.60;70.20;;;;;;2603724;54;19945;31
2022/05/15 14:15:38;;;;;;;;;;;23.60;70.60;;;;;;2622094;46;19935;31
2022/05/15 14:18:13;;;;;;;;;;;23.70;69.60;;;;;;2603609;54;20754;31
2022/05/15 14:20:47;;;;;;;;;;;23.70;70.60;;;;;;2603932;54;19935;31
2022/05/15 14:23:24;;;;;;;;;;;23.70;71.40;;;;;;2603520;54;20786;31
2022/05/15 14:26:02;;;;;;;;;;;23.60;71.50;;;;;;2621900;46;19935;31
2022/05/15 14:28:38;;;;;;;;;;;23.60;72.00;;;;;;2622389;46;19934;31
2022/05/15 14:31:12;;;;;;;;;;;23.60;72.30;;;;;;2603413;54;19935;31
2022/05/15 14:33:48;;;;;;;;;;;23.50;72.90;;;;;;2603448;54;19961;31
2022/05/15 14:36:24;;;;;;;;;;;23.50;71.90;;;;;;2621505;46;19934;31
2022/05/15 14:38:57;;;;;;;;;;;23.50;71.00;;;;;;2603451;54;19957;31
2022/05/15 14:41:34;;;;;;;;;;;23.40;72.70;;;;;;2603730;54;20810;31
2022/05/15 14:44:08;;;;;;;;;;;23.40;71.70;;;;;;2621979;47;19934;31
2022/05/15 14:46:44;;;;;;;;;;;23.40;70.60;;;;;;2603443;54;19958;31
2022/05/15 14:49:18;;;;;;;;;;;23.40;72.10;;;;;;2603673;54;20010;31
2022/05/15 14:52:00;;;;;;;;;;;23.30;71.50;;;;;;2621977;47;19941;31
2022/05/15 14:54:34;;;;;;;;;;;23.40;72.40;;;;;;2603646;54;19946;31
2022/05/15 14:57:12;;;;;;;;;;;23.30;71.40;;;;;;2701858;39;21170;31
2022/05/15 14:59:46;;;;;;;;;;;23.30;72.10;;;;;;2622133;47;19934;31
2022/05/15 15:02:20;;;;;;;;;;;23.20;71.20;;;;;;2603563;54;19962;31
2022/05/15 15:04:54;;;;;;;;;;;23.20;72.40;;;;;;2603503;54;20749;31
2022/05/15 15:07:27;;;;;;;;;;;23.20;72.10;;;;;;2603466;54;19935;31
2022/05/15 15:10:02;;;;;;;;;;;23.20;72.30;;;;;;2621893;47;20796;31
2022/05/15 15:12:39;;;;;;;;;;;23.20;71.10;;;;;;2603414;54;19937;31
2022/05/15 15:15:13;;;;;;;;;;;23.20;73.20;;;;;;2603594;54;20742;31
2022/05/15 15:17:48;;;;;;;;;;;23.10;72.10;;;;;;2603484;54;19941;31
2022/05/15 15:20:22;;;;;;;;;;;23.10;72.00;;;;;;2701943;39;20296;31
2022/05/15 15:22:56;;;;;;;;;;;23.10;73.40;;;;;;2603592;54;19935;31
2022/05/15 15:25:30;;;;;;;;;;;23.10;72.30;;;;;;2603462;54;19941;31
2022/05/15 15:28:06;;;;;;;;;;;23.10;73.10;;;;;;2603426;54;19957;31
2022/05/15 15:30:41;;;;;;;;;;;23.00;72.80;;;;;;2621938;47;19946;31
2022/05/15 15:33:13;;;;;;;;;;;23.00;72.10;;;;;;2773562;31;21023;31
2022/05/15 15:35:47;;;;;;;;;;;23.00;73.20;;;;;;2622092;47;20774;31
2022/05/15 15:38:23;;;;;;;;;;;22.90;72.20;;;;;;2603681;54;19941;31
2022/05/15 15:40:57;;;;;;;;;;;22.90;73.00;;;;;;2603273;54;19941;31
2022/05/15 15:43:38;;;;;;;;;;;22.90;72.60;;;;;;2603258;54;19938;31
2022/05/15 15:46:10;;;;;;;;;;;22.90;72.80;;;;;;2773486;31;21030;31
2022/05/15 15:48:45;;;;;;;;;;;22.80;72.60;;;;;;2603689;54;20851;31
2022/05/15 15:51:19;;;;;;;;;;;22.80;73.10;;;;;;2604109;54;19935;31
2022/05/15 15:53:54;;;;;;;;;;;22.80;72.60;;;;;;2604327;54;19935;31
2022/05/15 15:56:29;;;;;;;;;;;22.80;73.40;;;;;;2622704;46;19943;31